<?xml version="1.0" encoding="UTF-8" standalone="no" ?>
<gpx xmlns="http://www.topografix.com/GPX/1/1" xmlns:xsi="http://www.w3.org/2001/XMLSchema-instance" xsi:schemaLocation="http://www.topografix.com/GPX/1/1 http://www.topografix.com/GPX/1/1/gpx.xsd" version="1.1" creator="VisuGPX - https://www.visugpx.com">
  <metadata>
    <name>Murviel les Montpeulier</name>
    <desc><![CDATA[Boucle à faire en famille en étant prudent sur la partie de route.
jpc]]></desc>
  </metadata>
  <trk>
    <name><![CDATA[Tracé]]></name>
    <trkseg>
      <trkpt lat="43.61303" lon="3.74293">
        <ele>125.59</ele>
        <time>2010-04-07T12:11:03Z</time>
      </trkpt>
      <trkpt lat="43.61306" lon="3.74293">
        <ele>125.59</ele>
        <time>2010-04-07T12:11:04Z</time>
      </trkpt>
      <trkpt lat="43.6131" lon="3.74295">
        <ele>125.11</ele>
        <time>2010-04-07T12:11:05Z</time>
      </trkpt>
      <trkpt lat="43.61324" lon="3.74306">
        <ele>123.67</ele>
        <time>2010-04-07T12:11:09Z</time>
      </trkpt>
      <trkpt lat="43.61338" lon="3.74313">
        <ele>123.19</ele>
        <time>2010-04-07T12:11:12Z</time>
      </trkpt>
      <trkpt lat="43.61342" lon="3.74318">
        <ele>123.19</ele>
        <time>2010-04-07T12:11:13Z</time>
      </trkpt>
      <trkpt lat="43.6135" lon="3.74328">
        <ele>123.19</ele>
        <time>2010-04-07T12:11:15Z</time>
      </trkpt>
      <trkpt lat="43.61353" lon="3.74334">
        <ele>123.19</ele>
        <time>2010-04-07T12:11:16Z</time>
      </trkpt>
      <trkpt lat="43.61363" lon="3.74354">
        <ele>121.74</ele>
        <time>2010-04-07T12:11:19Z</time>
      </trkpt>
      <trkpt lat="43.61368" lon="3.7436">
        <ele>121.26</ele>
        <time>2010-04-07T12:11:20Z</time>
      </trkpt>
      <trkpt lat="43.61423" lon="3.74439">
        <ele>115.98</ele>
        <time>2010-04-07T12:11:32Z</time>
      </trkpt>
      <trkpt lat="43.61443" lon="3.74461">
        <ele>114.53</ele>
        <time>2010-04-07T12:11:36Z</time>
      </trkpt>
      <trkpt lat="43.61448" lon="3.74465">
        <ele>114.53</ele>
        <time>2010-04-07T12:11:37Z</time>
      </trkpt>
      <trkpt lat="43.61454" lon="3.74468">
        <ele>114.53</ele>
        <time>2010-04-07T12:11:38Z</time>
      </trkpt>
      <trkpt lat="43.6146" lon="3.7447">
        <ele>114.05</ele>
        <time>2010-04-07T12:11:39Z</time>
      </trkpt>
      <trkpt lat="43.61466" lon="3.74471">
        <ele>114.05</ele>
        <time>2010-04-07T12:11:40Z</time>
      </trkpt>
      <trkpt lat="43.61476" lon="3.74474">
        <ele>114.53</ele>
        <time>2010-04-07T12:11:42Z</time>
      </trkpt>
      <trkpt lat="43.6148" lon="3.74474">
        <ele>114.53</ele>
        <time>2010-04-07T12:11:43Z</time>
      </trkpt>
      <trkpt lat="43.61483" lon="3.74475">
        <ele>114.53</ele>
        <time>2010-04-07T12:11:44Z</time>
      </trkpt>
      <trkpt lat="43.61486" lon="3.74477">
        <ele>114.53</ele>
        <time>2010-04-07T12:11:45Z</time>
      </trkpt>
      <trkpt lat="43.61489" lon="3.74478">
        <ele>114.53</ele>
        <time>2010-04-07T12:11:46Z</time>
      </trkpt>
      <trkpt lat="43.61524" lon="3.74491">
        <ele>112.61</ele>
        <time>2010-04-07T12:11:56Z</time>
      </trkpt>
      <trkpt lat="43.61528" lon="3.74493">
        <ele>112.13</ele>
        <time>2010-04-07T12:11:57Z</time>
      </trkpt>
      <trkpt lat="43.61532" lon="3.74496">
        <ele>112.13</ele>
        <time>2010-04-07T12:11:58Z</time>
      </trkpt>
      <trkpt lat="43.61536" lon="3.74499">
        <ele>111.65</ele>
        <time>2010-04-07T12:11:59Z</time>
      </trkpt>
      <trkpt lat="43.6154" lon="3.74502">
        <ele>111.65</ele>
        <time>2010-04-07T12:12:00Z</time>
      </trkpt>
      <trkpt lat="43.61545" lon="3.74506">
        <ele>111.17</ele>
        <time>2010-04-07T12:12:01Z</time>
      </trkpt>
      <trkpt lat="43.61557" lon="3.74514">
        <ele>110.21</ele>
        <time>2010-04-07T12:12:03Z</time>
      </trkpt>
      <trkpt lat="43.61623" lon="3.74542">
        <ele>106.36</ele>
        <time>2010-04-07T12:12:12Z</time>
      </trkpt>
      <trkpt lat="43.61629" lon="3.74546">
        <ele>105.88</ele>
        <time>2010-04-07T12:12:13Z</time>
      </trkpt>
      <trkpt lat="43.61632" lon="3.7455">
        <ele>105.4</ele>
        <time>2010-04-07T12:12:14Z</time>
      </trkpt>
      <trkpt lat="43.61665" lon="3.74586">
        <ele>103</ele>
        <time>2010-04-07T12:12:24Z</time>
      </trkpt>
      <trkpt lat="43.617" lon="3.74629">
        <ele>102.52</ele>
        <time>2010-04-07T12:12:35Z</time>
      </trkpt>
      <trkpt lat="43.61733" lon="3.74668">
        <ele>101.56</ele>
        <time>2010-04-07T12:12:47Z</time>
      </trkpt>
      <trkpt lat="43.61739" lon="3.74671">
        <ele>101.08</ele>
        <time>2010-04-07T12:12:51Z</time>
      </trkpt>
      <trkpt lat="43.61763" lon="3.74668">
        <ele>98.67</ele>
        <time>2010-04-07T12:13:01Z</time>
      </trkpt>
      <trkpt lat="43.61793" lon="3.74661">
        <ele>93.39</ele>
        <time>2010-04-07T12:13:12Z</time>
      </trkpt>
      <trkpt lat="43.61797" lon="3.74659">
        <ele>92.42</ele>
        <time>2010-04-07T12:13:14Z</time>
      </trkpt>
      <trkpt lat="43.61799" lon="3.74658">
        <ele>91.46</ele>
        <time>2010-04-07T12:13:15Z</time>
      </trkpt>
      <trkpt lat="43.61805" lon="3.74655">
        <ele>88.58</ele>
        <time>2010-04-07T12:13:19Z</time>
      </trkpt>
      <trkpt lat="43.61826" lon="3.74646">
        <ele>85.69</ele>
        <time>2010-04-07T12:13:27Z</time>
      </trkpt>
      <trkpt lat="43.61828" lon="3.74644">
        <ele>85.21</ele>
        <time>2010-04-07T12:13:28Z</time>
      </trkpt>
      <trkpt lat="43.6183" lon="3.74642">
        <ele>85.21</ele>
        <time>2010-04-07T12:13:29Z</time>
      </trkpt>
      <trkpt lat="43.61831" lon="3.7464">
        <ele>85.21</ele>
        <time>2010-04-07T12:13:30Z</time>
      </trkpt>
      <trkpt lat="43.61833" lon="3.74638">
        <ele>85.21</ele>
        <time>2010-04-07T12:13:31Z</time>
      </trkpt>
      <trkpt lat="43.61835" lon="3.74637">
        <ele>85.21</ele>
        <time>2010-04-07T12:13:32Z</time>
      </trkpt>
      <trkpt lat="43.61838" lon="3.74635">
        <ele>85.21</ele>
        <time>2010-04-07T12:13:33Z</time>
      </trkpt>
      <trkpt lat="43.6184" lon="3.74635">
        <ele>85.21</ele>
        <time>2010-04-07T12:13:34Z</time>
      </trkpt>
      <trkpt lat="43.61844" lon="3.74634">
        <ele>86.18</ele>
        <time>2010-04-07T12:13:48Z</time>
      </trkpt>
      <trkpt lat="43.61852" lon="3.74631">
        <ele>89.54</ele>
        <time>2010-04-07T12:14:29Z</time>
      </trkpt>
      <trkpt lat="43.61854" lon="3.7463">
        <ele>90.02</ele>
        <time>2010-04-07T12:14:30Z</time>
      </trkpt>
      <trkpt lat="43.61889" lon="3.74628">
        <ele>95.31</ele>
        <time>2010-04-07T12:14:45Z</time>
      </trkpt>
      <trkpt lat="43.61927" lon="3.74633">
        <ele>101.08</ele>
        <time>2010-04-07T12:14:56Z</time>
      </trkpt>
      <trkpt lat="43.61937" lon="3.74635">
        <ele>101.56</ele>
        <time>2010-04-07T12:14:58Z</time>
      </trkpt>
      <trkpt lat="43.61942" lon="3.74635">
        <ele>102.04</ele>
        <time>2010-04-07T12:14:59Z</time>
      </trkpt>
      <trkpt lat="43.6196" lon="3.74636">
        <ele>103</ele>
        <time>2010-04-07T12:15:02Z</time>
      </trkpt>
      <trkpt lat="43.61965" lon="3.74637">
        <ele>103.48</ele>
        <time>2010-04-07T12:15:03Z</time>
      </trkpt>
      <trkpt lat="43.61972" lon="3.74637">
        <ele>103.96</ele>
        <time>2010-04-07T12:15:04Z</time>
      </trkpt>
      <trkpt lat="43.62039" lon="3.74641">
        <ele>104.44</ele>
        <time>2010-04-07T12:15:15Z</time>
      </trkpt>
      <trkpt lat="43.62043" lon="3.74643">
        <ele>103.96</ele>
        <time>2010-04-07T12:15:16Z</time>
      </trkpt>
      <trkpt lat="43.62046" lon="3.74645">
        <ele>103.96</ele>
        <time>2010-04-07T12:15:17Z</time>
      </trkpt>
      <trkpt lat="43.62049" lon="3.74649">
        <ele>103.96</ele>
        <time>2010-04-07T12:15:18Z</time>
      </trkpt>
      <trkpt lat="43.62051" lon="3.74653">
        <ele>103.96</ele>
        <time>2010-04-07T12:15:19Z</time>
      </trkpt>
      <trkpt lat="43.62051" lon="3.74658">
        <ele>103.96</ele>
        <time>2010-04-07T12:15:20Z</time>
      </trkpt>
      <trkpt lat="43.6205" lon="3.74662">
        <ele>103.48</ele>
        <time>2010-04-07T12:15:21Z</time>
      </trkpt>
      <trkpt lat="43.6205" lon="3.74666">
        <ele>103.48</ele>
        <time>2010-04-07T12:15:22Z</time>
      </trkpt>
      <trkpt lat="43.62049" lon="3.7467">
        <ele>103</ele>
        <time>2010-04-07T12:15:23Z</time>
      </trkpt>
      <trkpt lat="43.62045" lon="3.74685">
        <ele>102.04</ele>
        <time>2010-04-07T12:15:27Z</time>
      </trkpt>
      <trkpt lat="43.62046" lon="3.74688">
        <ele>101.56</ele>
        <time>2010-04-07T12:15:28Z</time>
      </trkpt>
      <trkpt lat="43.62046" lon="3.74692">
        <ele>101.56</ele>
        <time>2010-04-07T12:15:29Z</time>
      </trkpt>
      <trkpt lat="43.62048" lon="3.74694">
        <ele>101.56</ele>
        <time>2010-04-07T12:15:30Z</time>
      </trkpt>
      <trkpt lat="43.6205" lon="3.74696">
        <ele>101.08</ele>
        <time>2010-04-07T12:15:31Z</time>
      </trkpt>
      <trkpt lat="43.62053" lon="3.74697">
        <ele>101.08</ele>
        <time>2010-04-07T12:15:32Z</time>
      </trkpt>
      <trkpt lat="43.62057" lon="3.74697">
        <ele>101.08</ele>
        <time>2010-04-07T12:15:33Z</time>
      </trkpt>
      <trkpt lat="43.62061" lon="3.74697">
        <ele>100.6</ele>
        <time>2010-04-07T12:15:34Z</time>
      </trkpt>
      <trkpt lat="43.62065" lon="3.74697">
        <ele>100.6</ele>
        <time>2010-04-07T12:15:35Z</time>
      </trkpt>
      <trkpt lat="43.6207" lon="3.74699">
        <ele>100.6</ele>
        <time>2010-04-07T12:15:36Z</time>
      </trkpt>
      <trkpt lat="43.62074" lon="3.74702">
        <ele>100.6</ele>
        <time>2010-04-07T12:15:37Z</time>
      </trkpt>
      <trkpt lat="43.62082" lon="3.74713">
        <ele>100.6</ele>
        <time>2010-04-07T12:15:40Z</time>
      </trkpt>
      <trkpt lat="43.62083" lon="3.74718">
        <ele>100.6</ele>
        <time>2010-04-07T12:15:41Z</time>
      </trkpt>
      <trkpt lat="43.62084" lon="3.74723">
        <ele>100.6</ele>
        <time>2010-04-07T12:15:42Z</time>
      </trkpt>
      <trkpt lat="43.62087" lon="3.74717">
        <ele>100.11</ele>
        <time>2010-04-07T12:18:13Z</time>
      </trkpt>
      <trkpt lat="43.62088" lon="3.74716">
        <ele>100.6</ele>
        <time>2010-04-07T12:18:14Z</time>
      </trkpt>
      <trkpt lat="43.62091" lon="3.74717">
        <ele>101.08</ele>
        <time>2010-04-07T12:18:18Z</time>
      </trkpt>
      <trkpt lat="43.62101" lon="3.74729">
        <ele>103.96</ele>
        <time>2010-04-07T12:18:33Z</time>
      </trkpt>
      <trkpt lat="43.62103" lon="3.74732">
        <ele>104.44</ele>
        <time>2010-04-07T12:18:36Z</time>
      </trkpt>
      <trkpt lat="43.62105" lon="3.74736">
        <ele>104.92</ele>
        <time>2010-04-07T12:18:40Z</time>
      </trkpt>
      <trkpt lat="43.62111" lon="3.74742">
        <ele>105.88</ele>
        <time>2010-04-07T12:18:50Z</time>
      </trkpt>
      <trkpt lat="43.62116" lon="3.7474">
        <ele>106.84</ele>
        <time>2010-04-07T12:19:02Z</time>
      </trkpt>
      <trkpt lat="43.62116" lon="3.74738">
        <ele>106.84</ele>
        <time>2010-04-07T12:19:39Z</time>
      </trkpt>
      <trkpt lat="43.62117" lon="3.74735">
        <ele>106.84</ele>
        <time>2010-04-07T12:19:40Z</time>
      </trkpt>
      <trkpt lat="43.62117" lon="3.74733">
        <ele>106.84</ele>
        <time>2010-04-07T12:19:41Z</time>
      </trkpt>
      <trkpt lat="43.62124" lon="3.74691">
        <ele>106.84</ele>
        <time>2010-04-07T12:19:54Z</time>
      </trkpt>
      <trkpt lat="43.62132" lon="3.74644">
        <ele>106.84</ele>
        <time>2010-04-07T12:20:05Z</time>
      </trkpt>
      <trkpt lat="43.62141" lon="3.74593">
        <ele>107.32</ele>
        <time>2010-04-07T12:20:16Z</time>
      </trkpt>
      <trkpt lat="43.62159" lon="3.74533">
        <ele>107.32</ele>
        <time>2010-04-07T12:20:28Z</time>
      </trkpt>
      <trkpt lat="43.62182" lon="3.74477">
        <ele>105.88</ele>
        <time>2010-04-07T12:20:40Z</time>
      </trkpt>
      <trkpt lat="43.62188" lon="3.74463">
        <ele>105.4</ele>
        <time>2010-04-07T12:20:43Z</time>
      </trkpt>
      <trkpt lat="43.62221" lon="3.74415">
        <ele>104.92</ele>
        <time>2010-04-07T12:20:55Z</time>
      </trkpt>
      <trkpt lat="43.62253" lon="3.74377">
        <ele>105.4</ele>
        <time>2010-04-07T12:21:06Z</time>
      </trkpt>
      <trkpt lat="43.62281" lon="3.74345">
        <ele>108.29</ele>
        <time>2010-04-07T12:21:16Z</time>
      </trkpt>
      <trkpt lat="43.62315" lon="3.74302">
        <ele>111.17</ele>
        <time>2010-04-07T12:21:28Z</time>
      </trkpt>
      <trkpt lat="43.62332" lon="3.74272">
        <ele>111.17</ele>
        <time>2010-04-07T12:21:35Z</time>
      </trkpt>
      <trkpt lat="43.62359" lon="3.74221">
        <ele>109.25</ele>
        <time>2010-04-07T12:21:46Z</time>
      </trkpt>
      <trkpt lat="43.62382" lon="3.74158">
        <ele>106.36</ele>
        <time>2010-04-07T12:21:58Z</time>
      </trkpt>
      <trkpt lat="43.6239" lon="3.74124">
        <ele>106.36</ele>
        <time>2010-04-07T12:22:04Z</time>
      </trkpt>
      <trkpt lat="43.62391" lon="3.74118">
        <ele>106.36</ele>
        <time>2010-04-07T12:22:05Z</time>
      </trkpt>
      <trkpt lat="43.62399" lon="3.7407">
        <ele>104.92</ele>
        <time>2010-04-07T12:22:13Z</time>
      </trkpt>
      <trkpt lat="43.62399" lon="3.74063">
        <ele>104.92</ele>
        <time>2010-04-07T12:22:14Z</time>
      </trkpt>
      <trkpt lat="43.62406" lon="3.74002">
        <ele>104.44</ele>
        <time>2010-04-07T12:22:24Z</time>
      </trkpt>
      <trkpt lat="43.62406" lon="3.73996">
        <ele>104.44</ele>
        <time>2010-04-07T12:22:25Z</time>
      </trkpt>
      <trkpt lat="43.62406" lon="3.73989">
        <ele>104.44</ele>
        <time>2010-04-07T12:22:26Z</time>
      </trkpt>
      <trkpt lat="43.62408" lon="3.73957">
        <ele>104.92</ele>
        <time>2010-04-07T12:22:31Z</time>
      </trkpt>
      <trkpt lat="43.62414" lon="3.73901">
        <ele>105.88</ele>
        <time>2010-04-07T12:22:43Z</time>
      </trkpt>
      <trkpt lat="43.62423" lon="3.7389">
        <ele>106.36</ele>
        <time>2010-04-07T12:22:46Z</time>
      </trkpt>
      <trkpt lat="43.62426" lon="3.73885">
        <ele>106.36</ele>
        <time>2010-04-07T12:22:47Z</time>
      </trkpt>
      <trkpt lat="43.62434" lon="3.73864">
        <ele>105.88</ele>
        <time>2010-04-07T12:22:50Z</time>
      </trkpt>
      <trkpt lat="43.62439" lon="3.73858">
        <ele>105.88</ele>
        <time>2010-04-07T12:22:51Z</time>
      </trkpt>
      <trkpt lat="43.62444" lon="3.73854">
        <ele>105.88</ele>
        <time>2010-04-07T12:22:52Z</time>
      </trkpt>
      <trkpt lat="43.62449" lon="3.73853">
        <ele>105.88</ele>
        <time>2010-04-07T12:22:53Z</time>
      </trkpt>
      <trkpt lat="43.62454" lon="3.73856">
        <ele>105.4</ele>
        <time>2010-04-07T12:22:54Z</time>
      </trkpt>
      <trkpt lat="43.62457" lon="3.73861">
        <ele>105.4</ele>
        <time>2010-04-07T12:22:55Z</time>
      </trkpt>
      <trkpt lat="43.62459" lon="3.73866">
        <ele>105.4</ele>
        <time>2010-04-07T12:22:56Z</time>
      </trkpt>
      <trkpt lat="43.62461" lon="3.73871">
        <ele>105.4</ele>
        <time>2010-04-07T12:22:57Z</time>
      </trkpt>
      <trkpt lat="43.62463" lon="3.73876">
        <ele>105.4</ele>
        <time>2010-04-07T12:22:58Z</time>
      </trkpt>
      <trkpt lat="43.62492" lon="3.73926">
        <ele>105.88</ele>
        <time>2010-04-07T12:23:11Z</time>
      </trkpt>
      <trkpt lat="43.6253" lon="3.73916">
        <ele>107.32</ele>
        <time>2010-04-07T12:23:22Z</time>
      </trkpt>
      <trkpt lat="43.62575" lon="3.73903">
        <ele>109.73</ele>
        <time>2010-04-07T12:23:34Z</time>
      </trkpt>
      <trkpt lat="43.62649" lon="3.73874">
        <ele>110.69</ele>
        <time>2010-04-07T12:23:50Z</time>
      </trkpt>
      <trkpt lat="43.62712" lon="3.73854">
        <ele>112.13</ele>
        <time>2010-04-07T12:24:04Z</time>
      </trkpt>
      <trkpt lat="43.62716" lon="3.73855">
        <ele>112.13</ele>
        <time>2010-04-07T12:24:05Z</time>
      </trkpt>
      <trkpt lat="43.6272" lon="3.73856">
        <ele>112.13</ele>
        <time>2010-04-07T12:24:06Z</time>
      </trkpt>
      <trkpt lat="43.62723" lon="3.73858">
        <ele>112.61</ele>
        <time>2010-04-07T12:24:07Z</time>
      </trkpt>
      <trkpt lat="43.62727" lon="3.73861">
        <ele>112.61</ele>
        <time>2010-04-07T12:24:08Z</time>
      </trkpt>
      <trkpt lat="43.6273" lon="3.73864">
        <ele>112.61</ele>
        <time>2010-04-07T12:24:09Z</time>
      </trkpt>
      <trkpt lat="43.62732" lon="3.73867">
        <ele>112.61</ele>
        <time>2010-04-07T12:24:10Z</time>
      </trkpt>
      <trkpt lat="43.62738" lon="3.73876">
        <ele>113.09</ele>
        <time>2010-04-07T12:24:12Z</time>
      </trkpt>
      <trkpt lat="43.62741" lon="3.7388">
        <ele>113.57</ele>
        <time>2010-04-07T12:24:13Z</time>
      </trkpt>
      <trkpt lat="43.62765" lon="3.73967">
        <ele>115.5</ele>
        <time>2010-04-07T12:24:28Z</time>
      </trkpt>
      <trkpt lat="43.62783" lon="3.74059">
        <ele>116.46</ele>
        <time>2010-04-07T12:24:43Z</time>
      </trkpt>
      <trkpt lat="43.62796" lon="3.7412">
        <ele>115.98</ele>
        <time>2010-04-07T12:24:54Z</time>
      </trkpt>
      <trkpt lat="43.628" lon="3.74137">
        <ele>115.98</ele>
        <time>2010-04-07T12:24:57Z</time>
      </trkpt>
      <trkpt lat="43.62802" lon="3.74148">
        <ele>116.46</ele>
        <time>2010-04-07T12:24:59Z</time>
      </trkpt>
      <trkpt lat="43.62819" lon="3.74221">
        <ele>117.9</ele>
        <time>2010-04-07T12:25:13Z</time>
      </trkpt>
      <trkpt lat="43.62831" lon="3.74262">
        <ele>119.34</ele>
        <time>2010-04-07T12:25:21Z</time>
      </trkpt>
      <trkpt lat="43.62833" lon="3.74267">
        <ele>119.34</ele>
        <time>2010-04-07T12:25:22Z</time>
      </trkpt>
      <trkpt lat="43.6284" lon="3.74287">
        <ele>119.82</ele>
        <time>2010-04-07T12:25:26Z</time>
      </trkpt>
      <trkpt lat="43.62843" lon="3.74292">
        <ele>119.82</ele>
        <time>2010-04-07T12:25:27Z</time>
      </trkpt>
      <trkpt lat="43.62847" lon="3.74303">
        <ele>120.3</ele>
        <time>2010-04-07T12:25:29Z</time>
      </trkpt>
      <trkpt lat="43.6285" lon="3.74314">
        <ele>120.3</ele>
        <time>2010-04-07T12:25:31Z</time>
      </trkpt>
      <trkpt lat="43.62875" lon="3.74387">
        <ele>119.82</ele>
        <time>2010-04-07T12:25:44Z</time>
      </trkpt>
      <trkpt lat="43.62888" lon="3.74478">
        <ele>119.34</ele>
        <time>2010-04-07T12:25:59Z</time>
      </trkpt>
      <trkpt lat="43.62889" lon="3.74484">
        <ele>119.34</ele>
        <time>2010-04-07T12:26:00Z</time>
      </trkpt>
      <trkpt lat="43.6289" lon="3.7449">
        <ele>119.34</ele>
        <time>2010-04-07T12:26:01Z</time>
      </trkpt>
      <trkpt lat="43.62891" lon="3.74496">
        <ele>119.34</ele>
        <time>2010-04-07T12:26:02Z</time>
      </trkpt>
      <trkpt lat="43.62893" lon="3.74514">
        <ele>119.34</ele>
        <time>2010-04-07T12:26:05Z</time>
      </trkpt>
      <trkpt lat="43.62894" lon="3.7452">
        <ele>119.34</ele>
        <time>2010-04-07T12:26:06Z</time>
      </trkpt>
      <trkpt lat="43.62908" lon="3.74583">
        <ele>121.26</ele>
        <time>2010-04-07T12:26:17Z</time>
      </trkpt>
      <trkpt lat="43.62925" lon="3.74637">
        <ele>121.74</ele>
        <time>2010-04-07T12:26:28Z</time>
      </trkpt>
      <trkpt lat="43.6295" lon="3.74667">
        <ele>122.71</ele>
        <time>2010-04-07T12:26:39Z</time>
      </trkpt>
      <trkpt lat="43.62968" lon="3.74701">
        <ele>123.67</ele>
        <time>2010-04-07T12:26:50Z</time>
      </trkpt>
      <trkpt lat="43.62984" lon="3.74749">
        <ele>125.11</ele>
        <time>2010-04-07T12:27:03Z</time>
      </trkpt>
      <trkpt lat="43.62986" lon="3.74767">
        <ele>125.59</ele>
        <time>2010-04-07T12:27:08Z</time>
      </trkpt>
      <trkpt lat="43.6299" lon="3.7481">
        <ele>126.55</ele>
        <time>2010-04-07T12:27:20Z</time>
      </trkpt>
      <trkpt lat="43.62994" lon="3.74839">
        <ele>128.47</ele>
        <time>2010-04-07T12:27:29Z</time>
      </trkpt>
      <trkpt lat="43.62994" lon="3.74876">
        <ele>130.88</ele>
        <time>2010-04-07T12:27:42Z</time>
      </trkpt>
      <trkpt lat="43.62995" lon="3.74887">
        <ele>131.36</ele>
        <time>2010-04-07T12:27:46Z</time>
      </trkpt>
      <trkpt lat="43.62995" lon="3.7489">
        <ele>131.36</ele>
        <time>2010-04-07T12:27:47Z</time>
      </trkpt>
      <trkpt lat="43.62986" lon="3.74918">
        <ele>131.84</ele>
        <time>2010-04-07T12:28:00Z</time>
      </trkpt>
      <trkpt lat="43.62984" lon="3.74922">
        <ele>131.84</ele>
        <time>2010-04-07T12:28:02Z</time>
      </trkpt>
      <trkpt lat="43.62984" lon="3.74924">
        <ele>131.84</ele>
        <time>2010-04-07T12:28:03Z</time>
      </trkpt>
      <trkpt lat="43.62983" lon="3.74925">
        <ele>131.36</ele>
        <time>2010-04-07T12:28:04Z</time>
      </trkpt>
      <trkpt lat="43.62982" lon="3.74927">
        <ele>131.36</ele>
        <time>2010-04-07T12:28:05Z</time>
      </trkpt>
      <trkpt lat="43.62981" lon="3.74929">
        <ele>131.36</ele>
        <time>2010-04-07T12:28:06Z</time>
      </trkpt>
      <trkpt lat="43.62967" lon="3.74961">
        <ele>130.88</ele>
        <time>2010-04-07T12:28:20Z</time>
      </trkpt>
      <trkpt lat="43.62962" lon="3.75">
        <ele>131.36</ele>
        <time>2010-04-07T12:28:33Z</time>
      </trkpt>
      <trkpt lat="43.62951" lon="3.75044">
        <ele>133.28</ele>
        <time>2010-04-07T12:28:45Z</time>
      </trkpt>
      <trkpt lat="43.62948" lon="3.75111">
        <ele>134.72</ele>
        <time>2010-04-07T12:28:56Z</time>
      </trkpt>
      <trkpt lat="43.62947" lon="3.75119">
        <ele>134.24</ele>
        <time>2010-04-07T12:28:57Z</time>
      </trkpt>
      <trkpt lat="43.62948" lon="3.75128">
        <ele>134.24</ele>
        <time>2010-04-07T12:28:58Z</time>
      </trkpt>
      <trkpt lat="43.62948" lon="3.75137">
        <ele>134.24</ele>
        <time>2010-04-07T12:28:59Z</time>
      </trkpt>
      <trkpt lat="43.62935" lon="3.75116">
        <ele>138.09</ele>
        <time>2010-04-07T12:31:27Z</time>
      </trkpt>
      <trkpt lat="43.62932" lon="3.75114">
        <ele>138.57</ele>
        <time>2010-04-07T12:31:28Z</time>
      </trkpt>
      <trkpt lat="43.6293" lon="3.75111">
        <ele>138.57</ele>
        <time>2010-04-07T12:31:29Z</time>
      </trkpt>
      <trkpt lat="43.62903" lon="3.75075">
        <ele>141.93</ele>
        <time>2010-04-07T12:31:42Z</time>
      </trkpt>
      <trkpt lat="43.62883" lon="3.75035">
        <ele>144.82</ele>
        <time>2010-04-07T12:31:55Z</time>
      </trkpt>
      <trkpt lat="43.62863" lon="3.75005">
        <ele>147.22</ele>
        <time>2010-04-07T12:32:07Z</time>
      </trkpt>
      <trkpt lat="43.62822" lon="3.74991">
        <ele>147.7</ele>
        <time>2010-04-07T12:32:20Z</time>
      </trkpt>
      <trkpt lat="43.62793" lon="3.74976">
        <ele>148.66</ele>
        <time>2010-04-07T12:32:31Z</time>
      </trkpt>
      <trkpt lat="43.62788" lon="3.74957">
        <ele>149.14</ele>
        <time>2010-04-07T12:32:37Z</time>
      </trkpt>
      <trkpt lat="43.6276" lon="3.74931">
        <ele>151.06</ele>
        <time>2010-04-07T12:32:49Z</time>
      </trkpt>
      <trkpt lat="43.62728" lon="3.74919">
        <ele>154.91</ele>
        <time>2010-04-07T12:33:01Z</time>
      </trkpt>
      <trkpt lat="43.62698" lon="3.74901">
        <ele>158.75</ele>
        <time>2010-04-07T12:33:13Z</time>
      </trkpt>
      <trkpt lat="43.62676" lon="3.74897">
        <ele>160.2</ele>
        <time>2010-04-07T12:33:21Z</time>
      </trkpt>
      <trkpt lat="43.62667" lon="3.74888">
        <ele>161.64</ele>
        <time>2010-04-07T12:33:25Z</time>
      </trkpt>
      <trkpt lat="43.62644" lon="3.74861">
        <ele>162.12</ele>
        <time>2010-04-07T12:33:33Z</time>
      </trkpt>
      <trkpt lat="43.6264" lon="3.74858">
        <ele>162.12</ele>
        <time>2010-04-07T12:33:34Z</time>
      </trkpt>
      <trkpt lat="43.62636" lon="3.74854">
        <ele>162.12</ele>
        <time>2010-04-07T12:33:35Z</time>
      </trkpt>
      <trkpt lat="43.62631" lon="3.74851">
        <ele>162.12</ele>
        <time>2010-04-07T12:33:36Z</time>
      </trkpt>
      <trkpt lat="43.62626" lon="3.74848">
        <ele>161.64</ele>
        <time>2010-04-07T12:33:37Z</time>
      </trkpt>
      <trkpt lat="43.62581" lon="3.74831">
        <ele>159.24</ele>
        <time>2010-04-07T12:33:44Z</time>
      </trkpt>
      <trkpt lat="43.62573" lon="3.7483">
        <ele>158.75</ele>
        <time>2010-04-07T12:33:45Z</time>
      </trkpt>
      <trkpt lat="43.62566" lon="3.74831">
        <ele>158.75</ele>
        <time>2010-04-07T12:33:46Z</time>
      </trkpt>
      <trkpt lat="43.62559" lon="3.74833">
        <ele>158.27</ele>
        <time>2010-04-07T12:33:47Z</time>
      </trkpt>
      <trkpt lat="43.62552" lon="3.74835">
        <ele>157.79</ele>
        <time>2010-04-07T12:33:48Z</time>
      </trkpt>
      <trkpt lat="43.62546" lon="3.74838">
        <ele>157.31</ele>
        <time>2010-04-07T12:33:49Z</time>
      </trkpt>
      <trkpt lat="43.62541" lon="3.74842">
        <ele>156.83</ele>
        <time>2010-04-07T12:33:50Z</time>
      </trkpt>
      <trkpt lat="43.62537" lon="3.74848">
        <ele>156.83</ele>
        <time>2010-04-07T12:33:51Z</time>
      </trkpt>
      <trkpt lat="43.62534" lon="3.74853">
        <ele>156.35</ele>
        <time>2010-04-07T12:33:52Z</time>
      </trkpt>
      <trkpt lat="43.62532" lon="3.74858">
        <ele>156.35</ele>
        <time>2010-04-07T12:33:53Z</time>
      </trkpt>
      <trkpt lat="43.62531" lon="3.74862">
        <ele>156.35</ele>
        <time>2010-04-07T12:33:54Z</time>
      </trkpt>
      <trkpt lat="43.6253" lon="3.74866">
        <ele>155.87</ele>
        <time>2010-04-07T12:33:55Z</time>
      </trkpt>
      <trkpt lat="43.62529" lon="3.74869">
        <ele>155.39</ele>
        <time>2010-04-07T12:33:56Z</time>
      </trkpt>
      <trkpt lat="43.62528" lon="3.74873">
        <ele>155.39</ele>
        <time>2010-04-07T12:33:57Z</time>
      </trkpt>
      <trkpt lat="43.62527" lon="3.74877">
        <ele>154.91</ele>
        <time>2010-04-07T12:33:58Z</time>
      </trkpt>
      <trkpt lat="43.62526" lon="3.7488">
        <ele>154.91</ele>
        <time>2010-04-07T12:33:59Z</time>
      </trkpt>
      <trkpt lat="43.62524" lon="3.74902">
        <ele>153.95</ele>
        <time>2010-04-07T12:34:05Z</time>
      </trkpt>
      <trkpt lat="43.62525" lon="3.74905">
        <ele>153.95</ele>
        <time>2010-04-07T12:34:06Z</time>
      </trkpt>
      <trkpt lat="43.62525" lon="3.74909">
        <ele>153.95</ele>
        <time>2010-04-07T12:34:07Z</time>
      </trkpt>
      <trkpt lat="43.62526" lon="3.74913">
        <ele>153.95</ele>
        <time>2010-04-07T12:34:08Z</time>
      </trkpt>
      <trkpt lat="43.62527" lon="3.74916">
        <ele>154.43</ele>
        <time>2010-04-07T12:34:09Z</time>
      </trkpt>
      <trkpt lat="43.62528" lon="3.74919">
        <ele>154.43</ele>
        <time>2010-04-07T12:34:10Z</time>
      </trkpt>
      <trkpt lat="43.62541" lon="3.74958">
        <ele>157.31</ele>
        <time>2010-04-07T12:34:23Z</time>
      </trkpt>
      <trkpt lat="43.62562" lon="3.74993">
        <ele>159.24</ele>
        <time>2010-04-07T12:34:36Z</time>
      </trkpt>
      <trkpt lat="43.62561" lon="3.75029">
        <ele>161.64</ele>
        <time>2010-04-07T12:34:48Z</time>
      </trkpt>
      <trkpt lat="43.62546" lon="3.75061">
        <ele>164.04</ele>
        <time>2010-04-07T12:35:01Z</time>
      </trkpt>
      <trkpt lat="43.62537" lon="3.751">
        <ele>166.45</ele>
        <time>2010-04-07T12:35:15Z</time>
      </trkpt>
      <trkpt lat="43.62538" lon="3.7514">
        <ele>167.41</ele>
        <time>2010-04-07T12:35:28Z</time>
      </trkpt>
      <trkpt lat="43.62532" lon="3.75186">
        <ele>168.37</ele>
        <time>2010-04-07T12:35:43Z</time>
      </trkpt>
      <trkpt lat="43.62533" lon="3.75239">
        <ele>168.85</ele>
        <time>2010-04-07T12:35:58Z</time>
      </trkpt>
      <trkpt lat="43.62536" lon="3.75305">
        <ele>169.33</ele>
        <time>2010-04-07T12:36:11Z</time>
      </trkpt>
      <trkpt lat="43.6254" lon="3.75329">
        <ele>169.33</ele>
        <time>2010-04-07T12:36:22Z</time>
      </trkpt>
      <trkpt lat="43.6254" lon="3.75331">
        <ele>169.33</ele>
        <time>2010-04-07T12:37:20Z</time>
      </trkpt>
      <trkpt lat="43.62545" lon="3.75358">
        <ele>169.81</ele>
        <time>2010-04-07T12:37:27Z</time>
      </trkpt>
      <trkpt lat="43.62546" lon="3.75384">
        <ele>168.85</ele>
        <time>2010-04-07T12:37:31Z</time>
      </trkpt>
      <trkpt lat="43.62542" lon="3.75423">
        <ele>167.41</ele>
        <time>2010-04-07T12:37:36Z</time>
      </trkpt>
      <trkpt lat="43.62537" lon="3.75446">
        <ele>165.96</ele>
        <time>2010-04-07T12:37:39Z</time>
      </trkpt>
      <trkpt lat="43.62533" lon="3.75469">
        <ele>165</ele>
        <time>2010-04-07T12:37:42Z</time>
      </trkpt>
      <trkpt lat="43.6253" lon="3.75483">
        <ele>164.04</ele>
        <time>2010-04-07T12:37:44Z</time>
      </trkpt>
      <trkpt lat="43.62529" lon="3.7549">
        <ele>164.04</ele>
        <time>2010-04-07T12:37:45Z</time>
      </trkpt>
      <trkpt lat="43.62515" lon="3.75543">
        <ele>162.12</ele>
        <time>2010-04-07T12:37:53Z</time>
      </trkpt>
      <trkpt lat="43.62514" lon="3.7555">
        <ele>161.64</ele>
        <time>2010-04-07T12:37:54Z</time>
      </trkpt>
      <trkpt lat="43.62504" lon="3.75603">
        <ele>159.24</ele>
        <time>2010-04-07T12:38:01Z</time>
      </trkpt>
      <trkpt lat="43.62502" lon="3.7561">
        <ele>158.75</ele>
        <time>2010-04-07T12:38:02Z</time>
      </trkpt>
      <trkpt lat="43.62499" lon="3.75617">
        <ele>158.75</ele>
        <time>2010-04-07T12:38:03Z</time>
      </trkpt>
      <trkpt lat="43.62493" lon="3.75639">
        <ele>157.31</ele>
        <time>2010-04-07T12:38:06Z</time>
      </trkpt>
      <trkpt lat="43.6249" lon="3.75654">
        <ele>156.83</ele>
        <time>2010-04-07T12:38:08Z</time>
      </trkpt>
      <trkpt lat="43.62489" lon="3.75662">
        <ele>156.35</ele>
        <time>2010-04-07T12:38:09Z</time>
      </trkpt>
      <trkpt lat="43.6247" lon="3.75788">
        <ele>150.58</ele>
        <time>2010-04-07T12:38:24Z</time>
      </trkpt>
      <trkpt lat="43.62464" lon="3.75825">
        <ele>148.66</ele>
        <time>2010-04-07T12:38:28Z</time>
      </trkpt>
      <trkpt lat="43.62461" lon="3.75835">
        <ele>148.18</ele>
        <time>2010-04-07T12:38:29Z</time>
      </trkpt>
      <trkpt lat="43.62439" lon="3.75891">
        <ele>144.82</ele>
        <time>2010-04-07T12:38:35Z</time>
      </trkpt>
      <trkpt lat="43.62434" lon="3.75899">
        <ele>143.85</ele>
        <time>2010-04-07T12:38:36Z</time>
      </trkpt>
      <trkpt lat="43.62409" lon="3.75937">
        <ele>140.49</ele>
        <time>2010-04-07T12:38:41Z</time>
      </trkpt>
      <trkpt lat="43.62404" lon="3.75943">
        <ele>140.01</ele>
        <time>2010-04-07T12:38:42Z</time>
      </trkpt>
      <trkpt lat="43.62398" lon="3.75947">
        <ele>139.05</ele>
        <time>2010-04-07T12:38:43Z</time>
      </trkpt>
      <trkpt lat="43.62393" lon="3.75949">
        <ele>138.57</ele>
        <time>2010-04-07T12:38:44Z</time>
      </trkpt>
      <trkpt lat="43.62387" lon="3.75947">
        <ele>138.09</ele>
        <time>2010-04-07T12:38:45Z</time>
      </trkpt>
      <trkpt lat="43.62382" lon="3.75945">
        <ele>137.61</ele>
        <time>2010-04-07T12:38:46Z</time>
      </trkpt>
      <trkpt lat="43.62377" lon="3.75941">
        <ele>137.13</ele>
        <time>2010-04-07T12:38:47Z</time>
      </trkpt>
      <trkpt lat="43.62365" lon="3.75938">
        <ele>135.2</ele>
        <time>2010-04-07T12:38:53Z</time>
      </trkpt>
      <trkpt lat="43.62365" lon="3.75938">
        <ele>135.2</ele>
        <time>2010-04-07T12:39:18Z</time>
      </trkpt>
      <trkpt lat="43.62363" lon="3.75938">
        <ele>135.2</ele>
        <time>2010-04-07T12:39:22Z</time>
      </trkpt>
      <trkpt lat="43.62362" lon="3.7594">
        <ele>135.2</ele>
        <time>2010-04-07T12:39:23Z</time>
      </trkpt>
      <trkpt lat="43.6236" lon="3.75942">
        <ele>135.2</ele>
        <time>2010-04-07T12:39:24Z</time>
      </trkpt>
      <trkpt lat="43.62337" lon="3.75999">
        <ele>131.36</ele>
        <time>2010-04-07T12:39:37Z</time>
      </trkpt>
      <trkpt lat="43.62335" lon="3.76005">
        <ele>130.88</ele>
        <time>2010-04-07T12:39:38Z</time>
      </trkpt>
      <trkpt lat="43.62334" lon="3.76011">
        <ele>130.88</ele>
        <time>2010-04-07T12:39:39Z</time>
      </trkpt>
      <trkpt lat="43.62333" lon="3.76017">
        <ele>130.4</ele>
        <time>2010-04-07T12:39:40Z</time>
      </trkpt>
      <trkpt lat="43.6233" lon="3.76047">
        <ele>128.47</ele>
        <time>2010-04-07T12:39:45Z</time>
      </trkpt>
      <trkpt lat="43.62328" lon="3.76053">
        <ele>127.99</ele>
        <time>2010-04-07T12:39:46Z</time>
      </trkpt>
      <trkpt lat="43.62326" lon="3.7606">
        <ele>127.51</ele>
        <time>2010-04-07T12:39:47Z</time>
      </trkpt>
      <trkpt lat="43.62324" lon="3.76066">
        <ele>127.03</ele>
        <time>2010-04-07T12:39:48Z</time>
      </trkpt>
      <trkpt lat="43.62322" lon="3.76071">
        <ele>126.55</ele>
        <time>2010-04-07T12:39:49Z</time>
      </trkpt>
      <trkpt lat="43.6232" lon="3.76077">
        <ele>126.07</ele>
        <time>2010-04-07T12:39:50Z</time>
      </trkpt>
      <trkpt lat="43.62314" lon="3.76096">
        <ele>125.11</ele>
        <time>2010-04-07T12:39:53Z</time>
      </trkpt>
      <trkpt lat="43.62301" lon="3.76144">
        <ele>121.74</ele>
        <time>2010-04-07T12:39:59Z</time>
      </trkpt>
      <trkpt lat="43.62276" lon="3.7623">
        <ele>116.94</ele>
        <time>2010-04-07T12:40:09Z</time>
      </trkpt>
      <trkpt lat="43.62275" lon="3.76235">
        <ele>116.46</ele>
        <time>2010-04-07T12:40:10Z</time>
      </trkpt>
      <trkpt lat="43.62274" lon="3.7624">
        <ele>116.46</ele>
        <time>2010-04-07T12:40:11Z</time>
      </trkpt>
      <trkpt lat="43.62273" lon="3.76245">
        <ele>115.01</ele>
        <time>2010-04-07T12:40:19Z</time>
      </trkpt>
      <trkpt lat="43.62272" lon="3.76245">
        <ele>114.05</ele>
        <time>2010-04-07T12:40:53Z</time>
      </trkpt>
      <trkpt lat="43.62272" lon="3.76242">
        <ele>115.01</ele>
        <time>2010-04-07T12:41:10Z</time>
      </trkpt>
      <trkpt lat="43.62273" lon="3.7624">
        <ele>114.53</ele>
        <time>2010-04-07T12:41:11Z</time>
      </trkpt>
      <trkpt lat="43.62273" lon="3.76238">
        <ele>114.53</ele>
        <time>2010-04-07T12:41:12Z</time>
      </trkpt>
      <trkpt lat="43.62273" lon="3.76236">
        <ele>114.53</ele>
        <time>2010-04-07T12:41:13Z</time>
      </trkpt>
      <trkpt lat="43.62273" lon="3.76234">
        <ele>114.53</ele>
        <time>2010-04-07T12:41:14Z</time>
      </trkpt>
      <trkpt lat="43.62273" lon="3.76231">
        <ele>114.53</ele>
        <time>2010-04-07T12:41:15Z</time>
      </trkpt>
      <trkpt lat="43.62273" lon="3.76228">
        <ele>114.53</ele>
        <time>2010-04-07T12:41:16Z</time>
      </trkpt>
      <trkpt lat="43.62272" lon="3.76224">
        <ele>114.53</ele>
        <time>2010-04-07T12:41:17Z</time>
      </trkpt>
      <trkpt lat="43.62272" lon="3.76221">
        <ele>114.53</ele>
        <time>2010-04-07T12:41:18Z</time>
      </trkpt>
      <trkpt lat="43.62273" lon="3.76217">
        <ele>114.53</ele>
        <time>2010-04-07T12:41:19Z</time>
      </trkpt>
      <trkpt lat="43.62273" lon="3.76213">
        <ele>114.53</ele>
        <time>2010-04-07T12:41:20Z</time>
      </trkpt>
      <trkpt lat="43.62273" lon="3.76209">
        <ele>114.53</ele>
        <time>2010-04-07T12:41:21Z</time>
      </trkpt>
      <trkpt lat="43.62274" lon="3.76204">
        <ele>114.53</ele>
        <time>2010-04-07T12:41:22Z</time>
      </trkpt>
      <trkpt lat="43.62274" lon="3.762">
        <ele>114.53</ele>
        <time>2010-04-07T12:41:23Z</time>
      </trkpt>
      <trkpt lat="43.62276" lon="3.76148">
        <ele>115.01</ele>
        <time>2010-04-07T12:41:33Z</time>
      </trkpt>
      <trkpt lat="43.62276" lon="3.76142">
        <ele>115.5</ele>
        <time>2010-04-07T12:41:34Z</time>
      </trkpt>
      <trkpt lat="43.62276" lon="3.7613">
        <ele>115.5</ele>
        <time>2010-04-07T12:41:36Z</time>
      </trkpt>
      <trkpt lat="43.62276" lon="3.76113">
        <ele>115.98</ele>
        <time>2010-04-07T12:41:39Z</time>
      </trkpt>
      <trkpt lat="43.62276" lon="3.76107">
        <ele>115.98</ele>
        <time>2010-04-07T12:41:40Z</time>
      </trkpt>
      <trkpt lat="43.62277" lon="3.76101">
        <ele>115.98</ele>
        <time>2010-04-07T12:41:41Z</time>
      </trkpt>
      <trkpt lat="43.6228" lon="3.7605">
        <ele>115.5</ele>
        <time>2010-04-07T12:41:49Z</time>
      </trkpt>
      <trkpt lat="43.6228" lon="3.76001">
        <ele>115.5</ele>
        <time>2010-04-07T12:41:56Z</time>
      </trkpt>
      <trkpt lat="43.6228" lon="3.75993">
        <ele>115.5</ele>
        <time>2010-04-07T12:41:57Z</time>
      </trkpt>
      <trkpt lat="43.62281" lon="3.75949">
        <ele>116.94</ele>
        <time>2010-04-07T12:42:03Z</time>
      </trkpt>
      <trkpt lat="43.6228" lon="3.75941">
        <ele>116.94</ele>
        <time>2010-04-07T12:42:04Z</time>
      </trkpt>
      <trkpt lat="43.6228" lon="3.75926">
        <ele>117.42</ele>
        <time>2010-04-07T12:42:06Z</time>
      </trkpt>
      <trkpt lat="43.62281" lon="3.75896">
        <ele>118.38</ele>
        <time>2010-04-07T12:42:10Z</time>
      </trkpt>
      <trkpt lat="43.62281" lon="3.75873">
        <ele>118.86</ele>
        <time>2010-04-07T12:42:13Z</time>
      </trkpt>
      <trkpt lat="43.62283" lon="3.75851">
        <ele>119.82</ele>
        <time>2010-04-07T12:42:16Z</time>
      </trkpt>
      <trkpt lat="43.62284" lon="3.75844">
        <ele>120.3</ele>
        <time>2010-04-07T12:42:17Z</time>
      </trkpt>
      <trkpt lat="43.62284" lon="3.75836">
        <ele>120.3</ele>
        <time>2010-04-07T12:42:18Z</time>
      </trkpt>
      <trkpt lat="43.62284" lon="3.75829">
        <ele>120.78</ele>
        <time>2010-04-07T12:42:19Z</time>
      </trkpt>
      <trkpt lat="43.62284" lon="3.75821">
        <ele>121.26</ele>
        <time>2010-04-07T12:42:20Z</time>
      </trkpt>
      <trkpt lat="43.62284" lon="3.75814">
        <ele>121.74</ele>
        <time>2010-04-07T12:42:21Z</time>
      </trkpt>
      <trkpt lat="43.62283" lon="3.75791">
        <ele>122.71</ele>
        <time>2010-04-07T12:42:24Z</time>
      </trkpt>
      <trkpt lat="43.62283" lon="3.75784">
        <ele>123.19</ele>
        <time>2010-04-07T12:42:25Z</time>
      </trkpt>
      <trkpt lat="43.62282" lon="3.75777">
        <ele>123.67</ele>
        <time>2010-04-07T12:42:26Z</time>
      </trkpt>
      <trkpt lat="43.62282" lon="3.75769">
        <ele>123.67</ele>
        <time>2010-04-07T12:42:27Z</time>
      </trkpt>
      <trkpt lat="43.62281" lon="3.75762">
        <ele>124.15</ele>
        <time>2010-04-07T12:42:28Z</time>
      </trkpt>
      <trkpt lat="43.62281" lon="3.75754">
        <ele>124.63</ele>
        <time>2010-04-07T12:42:29Z</time>
      </trkpt>
      <trkpt lat="43.62279" lon="3.75738">
        <ele>125.11</ele>
        <time>2010-04-07T12:42:31Z</time>
      </trkpt>
      <trkpt lat="43.62279" lon="3.75731">
        <ele>125.59</ele>
        <time>2010-04-07T12:42:32Z</time>
      </trkpt>
      <trkpt lat="43.62279" lon="3.75723">
        <ele>126.07</ele>
        <time>2010-04-07T12:42:33Z</time>
      </trkpt>
      <trkpt lat="43.62277" lon="3.75708">
        <ele>126.55</ele>
        <time>2010-04-07T12:42:35Z</time>
      </trkpt>
      <trkpt lat="43.62271" lon="3.75669">
        <ele>127.99</ele>
        <time>2010-04-07T12:42:40Z</time>
      </trkpt>
      <trkpt lat="43.62264" lon="3.75641">
        <ele>128.95</ele>
        <time>2010-04-07T12:42:44Z</time>
      </trkpt>
      <trkpt lat="43.62259" lon="3.75628">
        <ele>129.43</ele>
        <time>2010-04-07T12:42:46Z</time>
      </trkpt>
      <trkpt lat="43.62255" lon="3.75615">
        <ele>130.4</ele>
        <time>2010-04-07T12:42:48Z</time>
      </trkpt>
      <trkpt lat="43.62213" lon="3.75534">
        <ele>135.68</ele>
        <time>2010-04-07T12:43:01Z</time>
      </trkpt>
      <trkpt lat="43.62173" lon="3.75468">
        <ele>138.57</ele>
        <time>2010-04-07T12:43:12Z</time>
      </trkpt>
      <trkpt lat="43.6217" lon="3.75461">
        <ele>138.09</ele>
        <time>2010-04-07T12:43:13Z</time>
      </trkpt>
      <trkpt lat="43.62167" lon="3.75454">
        <ele>137.61</ele>
        <time>2010-04-07T12:43:14Z</time>
      </trkpt>
      <trkpt lat="43.62163" lon="3.75447">
        <ele>137.61</ele>
        <time>2010-04-07T12:43:15Z</time>
      </trkpt>
      <trkpt lat="43.62159" lon="3.7544">
        <ele>137.13</ele>
        <time>2010-04-07T12:43:16Z</time>
      </trkpt>
      <trkpt lat="43.62156" lon="3.75433">
        <ele>136.64</ele>
        <time>2010-04-07T12:43:17Z</time>
      </trkpt>
      <trkpt lat="43.62115" lon="3.75332">
        <ele>127.51</ele>
        <time>2010-04-07T12:43:30Z</time>
      </trkpt>
      <trkpt lat="43.62074" lon="3.75208">
        <ele>119.82</ele>
        <time>2010-04-07T12:43:47Z</time>
      </trkpt>
      <trkpt lat="43.6207" lon="3.75187">
        <ele>119.34</ele>
        <time>2010-04-07T12:43:50Z</time>
      </trkpt>
      <trkpt lat="43.62061" lon="3.75125">
        <ele>116.94</ele>
        <time>2010-04-07T12:43:58Z</time>
      </trkpt>
      <trkpt lat="43.62061" lon="3.75117">
        <ele>116.94</ele>
        <time>2010-04-07T12:43:59Z</time>
      </trkpt>
      <trkpt lat="43.62061" lon="3.75108">
        <ele>116.46</ele>
        <time>2010-04-07T12:44:00Z</time>
      </trkpt>
      <trkpt lat="43.62063" lon="3.75069">
        <ele>114.53</ele>
        <time>2010-04-07T12:44:05Z</time>
      </trkpt>
      <trkpt lat="43.62065" lon="3.75062">
        <ele>114.53</ele>
        <time>2010-04-07T12:44:06Z</time>
      </trkpt>
      <trkpt lat="43.62067" lon="3.75054">
        <ele>113.57</ele>
        <time>2010-04-07T12:44:07Z</time>
      </trkpt>
      <trkpt lat="43.62074" lon="3.75033">
        <ele>112.61</ele>
        <time>2010-04-07T12:44:10Z</time>
      </trkpt>
      <trkpt lat="43.62089" lon="3.74937">
        <ele>109.25</ele>
        <time>2010-04-07T12:44:21Z</time>
      </trkpt>
      <trkpt lat="43.62092" lon="3.74927">
        <ele>108.77</ele>
        <time>2010-04-07T12:44:22Z</time>
      </trkpt>
      <trkpt lat="43.62095" lon="3.74918">
        <ele>108.29</ele>
        <time>2010-04-07T12:44:23Z</time>
      </trkpt>
      <trkpt lat="43.62098" lon="3.74909">
        <ele>107.81</ele>
        <time>2010-04-07T12:44:24Z</time>
      </trkpt>
      <trkpt lat="43.62099" lon="3.74901">
        <ele>107.32</ele>
        <time>2010-04-07T12:44:25Z</time>
      </trkpt>
      <trkpt lat="43.62108" lon="3.74863">
        <ele>105.4</ele>
        <time>2010-04-07T12:44:30Z</time>
      </trkpt>
      <trkpt lat="43.62113" lon="3.74836">
        <ele>102.04</ele>
        <time>2010-04-07T12:44:38Z</time>
      </trkpt>
      <trkpt lat="43.62112" lon="3.74834">
        <ele>102.04</ele>
        <time>2010-04-07T12:44:39Z</time>
      </trkpt>
      <trkpt lat="43.6211" lon="3.74832">
        <ele>102.04</ele>
        <time>2010-04-07T12:44:40Z</time>
      </trkpt>
      <trkpt lat="43.62107" lon="3.74831">
        <ele>102.04</ele>
        <time>2010-04-07T12:44:41Z</time>
      </trkpt>
      <trkpt lat="43.62104" lon="3.74831">
        <ele>101.56</ele>
        <time>2010-04-07T12:44:42Z</time>
      </trkpt>
      <trkpt lat="43.62094" lon="3.74826">
        <ele>102.04</ele>
        <time>2010-04-07T12:44:45Z</time>
      </trkpt>
      <trkpt lat="43.62091" lon="3.74821">
        <ele>102.04</ele>
        <time>2010-04-07T12:44:46Z</time>
      </trkpt>
      <trkpt lat="43.62091" lon="3.74816">
        <ele>102.04</ele>
        <time>2010-04-07T12:44:47Z</time>
      </trkpt>
      <trkpt lat="43.62093" lon="3.7479">
        <ele>100.6</ele>
        <time>2010-04-07T12:44:52Z</time>
      </trkpt>
      <trkpt lat="43.62092" lon="3.74772">
        <ele>100.11</ele>
        <time>2010-04-07T12:44:55Z</time>
      </trkpt>
      <trkpt lat="43.62088" lon="3.74715">
        <ele>98.67</ele>
        <time>2010-04-07T12:45:05Z</time>
      </trkpt>
      <trkpt lat="43.62085" lon="3.74712">
        <ele>98.67</ele>
        <time>2010-04-07T12:45:06Z</time>
      </trkpt>
      <trkpt lat="43.62082" lon="3.74709">
        <ele>98.67</ele>
        <time>2010-04-07T12:45:07Z</time>
      </trkpt>
      <trkpt lat="43.62074" lon="3.74705">
        <ele>98.67</ele>
        <time>2010-04-07T12:45:09Z</time>
      </trkpt>
      <trkpt lat="43.6207" lon="3.74704">
        <ele>98.67</ele>
        <time>2010-04-07T12:45:10Z</time>
      </trkpt>
      <trkpt lat="43.62067" lon="3.74703">
        <ele>98.67</ele>
        <time>2010-04-07T12:45:11Z</time>
      </trkpt>
      <trkpt lat="43.62064" lon="3.74702">
        <ele>98.67</ele>
        <time>2010-04-07T12:45:12Z</time>
      </trkpt>
      <trkpt lat="43.62061" lon="3.74702">
        <ele>99.15</ele>
        <time>2010-04-07T12:45:13Z</time>
      </trkpt>
      <trkpt lat="43.62053" lon="3.74696">
        <ele>100.11</ele>
        <time>2010-04-07T12:45:17Z</time>
      </trkpt>
      <trkpt lat="43.62052" lon="3.74693">
        <ele>100.11</ele>
        <time>2010-04-07T12:45:18Z</time>
      </trkpt>
      <trkpt lat="43.62052" lon="3.7469">
        <ele>100.11</ele>
        <time>2010-04-07T12:45:19Z</time>
      </trkpt>
      <trkpt lat="43.62058" lon="3.7465">
        <ele>102.52</ele>
        <time>2010-04-07T12:45:29Z</time>
      </trkpt>
      <trkpt lat="43.62056" lon="3.74647">
        <ele>103</ele>
        <time>2010-04-07T12:45:30Z</time>
      </trkpt>
      <trkpt lat="43.62054" lon="3.74645">
        <ele>103</ele>
        <time>2010-04-07T12:45:31Z</time>
      </trkpt>
      <trkpt lat="43.62051" lon="3.74643">
        <ele>103.48</ele>
        <time>2010-04-07T12:45:32Z</time>
      </trkpt>
      <trkpt lat="43.62049" lon="3.74642">
        <ele>103.48</ele>
        <time>2010-04-07T12:45:33Z</time>
      </trkpt>
      <trkpt lat="43.62046" lon="3.74641">
        <ele>103.96</ele>
        <time>2010-04-07T12:45:34Z</time>
      </trkpt>
      <trkpt lat="43.62043" lon="3.74641">
        <ele>104.44</ele>
        <time>2010-04-07T12:45:35Z</time>
      </trkpt>
      <trkpt lat="43.6204" lon="3.74641">
        <ele>104.44</ele>
        <time>2010-04-07T12:45:36Z</time>
      </trkpt>
      <trkpt lat="43.62037" lon="3.74641">
        <ele>104.92</ele>
        <time>2010-04-07T12:45:37Z</time>
      </trkpt>
      <trkpt lat="43.62001" lon="3.74637">
        <ele>107.81</ele>
        <time>2010-04-07T12:45:49Z</time>
      </trkpt>
      <trkpt lat="43.61972" lon="3.7464">
        <ele>110.21</ele>
        <time>2010-04-07T12:46:00Z</time>
      </trkpt>
      <trkpt lat="43.61941" lon="3.74634">
        <ele>113.09</ele>
        <time>2010-04-07T12:46:11Z</time>
      </trkpt>
      <trkpt lat="43.61906" lon="3.7463">
        <ele>115.98</ele>
        <time>2010-04-07T12:46:24Z</time>
      </trkpt>
      <trkpt lat="43.61868" lon="3.74638">
        <ele>115.98</ele>
        <time>2010-04-07T12:46:35Z</time>
      </trkpt>
      <trkpt lat="43.6186" lon="3.74641">
        <ele>115.98</ele>
        <time>2010-04-07T12:46:37Z</time>
      </trkpt>
      <trkpt lat="43.61848" lon="3.74643">
        <ele>115.01</ele>
        <time>2010-04-07T12:46:40Z</time>
      </trkpt>
      <trkpt lat="43.61829" lon="3.74649">
        <ele>114.53</ele>
        <time>2010-04-07T12:46:44Z</time>
      </trkpt>
      <trkpt lat="43.61824" lon="3.74651">
        <ele>114.53</ele>
        <time>2010-04-07T12:46:45Z</time>
      </trkpt>
      <trkpt lat="43.61819" lon="3.74653">
        <ele>114.05</ele>
        <time>2010-04-07T12:46:46Z</time>
      </trkpt>
      <trkpt lat="43.61815" lon="3.74654">
        <ele>113.57</ele>
        <time>2010-04-07T12:46:47Z</time>
      </trkpt>
      <trkpt lat="43.6181" lon="3.74656">
        <ele>113.57</ele>
        <time>2010-04-07T12:46:48Z</time>
      </trkpt>
      <trkpt lat="43.61805" lon="3.74658">
        <ele>113.09</ele>
        <time>2010-04-07T12:46:49Z</time>
      </trkpt>
      <trkpt lat="43.618" lon="3.7466">
        <ele>113.09</ele>
        <time>2010-04-07T12:46:50Z</time>
      </trkpt>
      <trkpt lat="43.61779" lon="3.74665">
        <ele>111.65</ele>
        <time>2010-04-07T12:46:54Z</time>
      </trkpt>
      <trkpt lat="43.61754" lon="3.74665">
        <ele>110.21</ele>
        <time>2010-04-07T12:46:59Z</time>
      </trkpt>
      <trkpt lat="43.61751" lon="3.74662">
        <ele>110.21</ele>
        <time>2010-04-07T12:47:00Z</time>
      </trkpt>
      <trkpt lat="43.61748" lon="3.74659">
        <ele>110.21</ele>
        <time>2010-04-07T12:47:01Z</time>
      </trkpt>
      <trkpt lat="43.61745" lon="3.74656">
        <ele>109.73</ele>
        <time>2010-04-07T12:47:02Z</time>
      </trkpt>
      <trkpt lat="43.61742" lon="3.74652">
        <ele>109.73</ele>
        <time>2010-04-07T12:47:03Z</time>
      </trkpt>
      <trkpt lat="43.61739" lon="3.74649">
        <ele>109.73</ele>
        <time>2010-04-07T12:47:04Z</time>
      </trkpt>
      <trkpt lat="43.61707" lon="3.74614">
        <ele>111.17</ele>
        <time>2010-04-07T12:47:14Z</time>
      </trkpt>
      <trkpt lat="43.61704" lon="3.74611">
        <ele>111.17</ele>
        <time>2010-04-07T12:47:15Z</time>
      </trkpt>
      <trkpt lat="43.61702" lon="3.74609">
        <ele>111.17</ele>
        <time>2010-04-07T12:47:16Z</time>
      </trkpt>
      <trkpt lat="43.61699" lon="3.74608">
        <ele>111.17</ele>
        <time>2010-04-07T12:47:17Z</time>
      </trkpt>
      <trkpt lat="43.61696" lon="3.74605">
        <ele>111.17</ele>
        <time>2010-04-07T12:47:18Z</time>
      </trkpt>
      <trkpt lat="43.61693" lon="3.74601">
        <ele>111.17</ele>
        <time>2010-04-07T12:47:19Z</time>
      </trkpt>
      <trkpt lat="43.6169" lon="3.74597">
        <ele>111.17</ele>
        <time>2010-04-07T12:47:20Z</time>
      </trkpt>
      <trkpt lat="43.6166" lon="3.7456">
        <ele>110.21</ele>
        <time>2010-04-07T12:47:31Z</time>
      </trkpt>
      <trkpt lat="43.61617" lon="3.74534">
        <ele>109.73</ele>
        <time>2010-04-07T12:47:41Z</time>
      </trkpt>
      <trkpt lat="43.61584" lon="3.7452">
        <ele>109.73</ele>
        <time>2010-04-07T12:47:51Z</time>
      </trkpt>
      <trkpt lat="43.61569" lon="3.74512">
        <ele>109.25</ele>
        <time>2010-04-07T12:47:56Z</time>
      </trkpt>
      <trkpt lat="43.61566" lon="3.74511">
        <ele>109.25</ele>
        <time>2010-04-07T12:47:57Z</time>
      </trkpt>
      <trkpt lat="43.61563" lon="3.7451">
        <ele>109.25</ele>
        <time>2010-04-07T12:47:58Z</time>
      </trkpt>
      <trkpt lat="43.6156" lon="3.74509">
        <ele>109.25</ele>
        <time>2010-04-07T12:47:59Z</time>
      </trkpt>
      <trkpt lat="43.61556" lon="3.74509">
        <ele>109.25</ele>
        <time>2010-04-07T12:48:00Z</time>
      </trkpt>
      <trkpt lat="43.61553" lon="3.74508">
        <ele>109.25</ele>
        <time>2010-04-07T12:48:01Z</time>
      </trkpt>
      <trkpt lat="43.6155" lon="3.74507">
        <ele>109.25</ele>
        <time>2010-04-07T12:48:02Z</time>
      </trkpt>
      <trkpt lat="43.61546" lon="3.74507">
        <ele>109.25</ele>
        <time>2010-04-07T12:48:03Z</time>
      </trkpt>
      <trkpt lat="43.61543" lon="3.74508">
        <ele>108.77</ele>
        <time>2010-04-07T12:48:04Z</time>
      </trkpt>
      <trkpt lat="43.6154" lon="3.74508">
        <ele>108.77</ele>
        <time>2010-04-07T12:48:05Z</time>
      </trkpt>
      <trkpt lat="43.61536" lon="3.74509">
        <ele>108.29</ele>
        <time>2010-04-07T12:48:06Z</time>
      </trkpt>
      <trkpt lat="43.61533" lon="3.74509">
        <ele>107.81</ele>
        <time>2010-04-07T12:48:07Z</time>
      </trkpt>
      <trkpt lat="43.61529" lon="3.74508">
        <ele>107.81</ele>
        <time>2010-04-07T12:48:08Z</time>
      </trkpt>
      <trkpt lat="43.61526" lon="3.74508">
        <ele>107.32</ele>
        <time>2010-04-07T12:48:09Z</time>
      </trkpt>
      <trkpt lat="43.61522" lon="3.74508">
        <ele>106.84</ele>
        <time>2010-04-07T12:48:10Z</time>
      </trkpt>
      <trkpt lat="43.61518" lon="3.74508">
        <ele>106.36</ele>
        <time>2010-04-07T12:48:11Z</time>
      </trkpt>
      <trkpt lat="43.61515" lon="3.74507">
        <ele>105.88</ele>
        <time>2010-04-07T12:48:12Z</time>
      </trkpt>
      <trkpt lat="43.61512" lon="3.74506">
        <ele>105.4</ele>
        <time>2010-04-07T12:48:13Z</time>
      </trkpt>
      <trkpt lat="43.61508" lon="3.74505">
        <ele>105.4</ele>
        <time>2010-04-07T12:48:14Z</time>
      </trkpt>
      <trkpt lat="43.61504" lon="3.74504">
        <ele>104.92</ele>
        <time>2010-04-07T12:48:15Z</time>
      </trkpt>
      <trkpt lat="43.615" lon="3.74503">
        <ele>103.96</ele>
        <time>2010-04-07T12:48:16Z</time>
      </trkpt>
      <trkpt lat="43.61496" lon="3.74501">
        <ele>103.48</ele>
        <time>2010-04-07T12:48:17Z</time>
      </trkpt>
      <trkpt lat="43.61491" lon="3.745">
        <ele>103</ele>
        <time>2010-04-07T12:48:18Z</time>
      </trkpt>
      <trkpt lat="43.61487" lon="3.74498">
        <ele>102.52</ele>
        <time>2010-04-07T12:48:19Z</time>
      </trkpt>
      <trkpt lat="43.61482" lon="3.74497">
        <ele>102.04</ele>
        <time>2010-04-07T12:48:20Z</time>
      </trkpt>
      <trkpt lat="43.61478" lon="3.74495">
        <ele>102.04</ele>
        <time>2010-04-07T12:48:21Z</time>
      </trkpt>
      <trkpt lat="43.61474" lon="3.74493">
        <ele>101.56</ele>
        <time>2010-04-07T12:48:22Z</time>
      </trkpt>
      <trkpt lat="43.61469" lon="3.7449">
        <ele>101.56</ele>
        <time>2010-04-07T12:48:23Z</time>
      </trkpt>
      <trkpt lat="43.61465" lon="3.74487">
        <ele>101.56</ele>
        <time>2010-04-07T12:48:24Z</time>
      </trkpt>
      <trkpt lat="43.61417" lon="3.74425">
        <ele>105.4</ele>
        <time>2010-04-07T12:48:37Z</time>
      </trkpt>
      <trkpt lat="43.61394" lon="3.74391">
        <ele>108.29</ele>
        <time>2010-04-07T12:48:44Z</time>
      </trkpt>
      <trkpt lat="43.6137" lon="3.74353">
        <ele>110.69</ele>
        <time>2010-04-07T12:48:52Z</time>
      </trkpt>
      <trkpt lat="43.61367" lon="3.74348">
        <ele>110.69</ele>
        <time>2010-04-07T12:48:53Z</time>
      </trkpt>
      <trkpt lat="43.61365" lon="3.74343">
        <ele>111.17</ele>
        <time>2010-04-07T12:48:54Z</time>
      </trkpt>
      <trkpt lat="43.61363" lon="3.74339">
        <ele>111.17</ele>
        <time>2010-04-07T12:48:55Z</time>
      </trkpt>
      <trkpt lat="43.6136" lon="3.74335">
        <ele>111.65</ele>
        <time>2010-04-07T12:48:56Z</time>
      </trkpt>
      <trkpt lat="43.61358" lon="3.74331">
        <ele>111.65</ele>
        <time>2010-04-07T12:48:57Z</time>
      </trkpt>
      <trkpt lat="43.61345" lon="3.74316">
        <ele>114.53</ele>
        <time>2010-04-07T12:49:01Z</time>
      </trkpt>
      <trkpt lat="43.61307" lon="3.74293">
        <ele>117.9</ele>
        <time>2010-04-07T12:49:12Z</time>
      </trkpt>
      <trkpt lat="43.61305" lon="3.74295">
        <ele>117.9</ele>
        <time>2010-04-07T12:49:13Z</time>
      </trkpt>
      <trkpt lat="43.61303" lon="3.74297">
        <ele>118.38</ele>
        <time>2010-04-07T12:49:14Z</time>
      </trkpt>
    </trkseg>
  </trk>
</gpx>